x

Bridlington Mrsc (03292) Weather Station

11:00am - Wed 1st Apr 2015 All times are BST. 1 hours from GMT.

  • Wind
    18mph, 33mph gusts
  • Air Temp 47°f
  • Sea Pressure 1017mb
  • Bridlington Mrsc
  • Bridlington Mrsc

More Historic Weather Station data

Upgrade to MSW Pro to gain access to the past 30 days of data for over 8000 Wavebouys and Weather Stations around the globe.

Join Pro

Comparision Forecast

View Surf forecast
   
Wed 04/01 11:00am 18 33 mph 1017mb 47f
10:00am 21 36 mph 1017mb 45f
9:00am 18 32 mph 1016mb 44f
8:00am 14
mph
1016mb 40f
7:00am 13
mph
1015mb 37f
6:00am 15 29 mph 1014mb 38f
5:00am 16 29 mph 1014mb 38f
4:00am 15 30 mph 1013mb 38f
3:00am 18 34 mph 1012mb 38f
2:00am 19 32 mph 1011mb 38f
1:00am 21 34 mph 1010mb 38f
12:00am 21 33 mph 1009mb 39f
Tue 03/31 11:00pm 17 36 mph 1008mb 38f
10:00pm 22 40 mph 1008mb 39f
9:00pm 21 40 mph 1007mb 39f
8:00pm 21 38 mph 1006mb 40f
7:00pm 24 48 mph 1006mb 41f
6:00pm 22 53 mph 1005mb 44f
5:00pm 29 51 mph 1003mb 46f
4:00pm 25 49 mph 1002mb 46f
3:00pm 26 52 mph 1002mb 42f
2:00pm 21 45 mph 1001mb 44f
1:00pm 21 41 mph 1000mb 47f
12:00pm 25 45 mph 999mb 49f
11:00am 28 52 mph 998mb 49f
10:00am 31 49 mph 997mb 47f
9:00am 25 48 mph 995mb 46f
8:00am 24 49 mph 993mb 44f
7:00am 26 47 mph 990mb 44f
6:00am 32 54 mph 987mb 46f
5:00am 29 56 mph 984mb 46f
4:00am 28 48 mph 983mb 46f
3:00am 26 45 mph 984mb 47f
2:00am 22 48 mph 984mb 48f
1:00am 19 38 mph 984mb 49f
12:00am 16 33 mph 984mb 47f
Mon 03/30 11:00pm 15 30 mph 987mb 46f
10:00pm 17
mph
991mb 44f
9:00pm 17
mph
993mb 43f
8:00pm 21 36 mph 996mb 42f
7:00pm 19 32 mph 999mb 44f
6:00pm 16
mph
1000mb 47f
5:00pm 13 29 mph 1003mb 48f
4:00pm 15 30 mph 1003mb 48f
3:00pm 18 33 mph 1004mb 50f
2:00pm 18 38 mph 1005mb 50f
1:00pm 22 34 mph 1005mb 47f
12:00pm 19 32 mph 1005mb 46f
11:00am 18 30 mph 1004mb 45f
10:00am 21 31 mph 1004mb 43f
9:00am 17 31 mph 1003mb 42f
8:00am 16 32 mph 1002mb 39f
7:00am 21 36 mph 1000mb 38f
6:00am 16 30 mph 999mb 38f
5:00am 19 34 mph 997mb 39f
4:00am 21 31 mph 996mb 40f
3:00am 14 29 mph 996mb 39f
2:00am 17 30 mph 995mb 40f
1:00am 14 33 mph 994mb 40f
12:00am 21 33 mph 993mb 41f
Sun 03/29 11:00pm 13
mph
993mb 41f
10:00pm 14
mph
992mb 42f
9:00pm 16 31 mph 992mb 43f
8:00pm 17 34 mph 991mb 45f
7:00pm 14 30 mph 990mb 47f
6:00pm 13 30 mph 989mb 47f
5:00pm 17 32 mph 988mb 49f
4:00pm 15
mph
988mb 48f
3:00pm 16
mph
987mb 47f
2:00pm 10
mph
987mb 44f
1:00pm 8
mph
987mb 45f
12:00pm 6
mph
988mb 45f
11:00am 11 23 mph 990mb 47f
10:00am 10
mph
991mb 46f
9:00am 8
mph
993mb 46f
8:00am 7
mph
994mb 45f
7:00am 11
mph
994mb 44f
6:00am 13 25 mph 995mb 44f
5:00am 18 34 mph 995mb 44f
4:00am 22 34 mph 996mb 46f
3:00am 17 32 mph 996mb 45f
2:00am 16 34 mph 997mb 44f
1:00am 11
mph
997mb 47f
Sat 03/28 11:00pm 7
mph
998mb 46f
10:00pm 11
mph
998mb 48f
9:00pm 5
mph
999mb 49f
8:00pm 14 31 mph 998mb 51f
7:00pm 17 32 mph 998mb 54f
6:00pm 15 31 mph 998mb 57f
5:00pm 16 41 mph 998mb 58f
4:00pm 19 44 mph 997mb 60f
2:00pm 18 36 mph 998mb 58f
1:00pm 17 33 mph 1000mb 55f
12:00pm 19 31 mph 1001mb 51f